Weather at Qom International Airport (under contstruction) [CLOSED]

Public forecast

Using degrees Celsius for public forecast. Weather courtesy of forecast.io.

Closest aviation weather report (METAR) to Qom International Airport (under contstruction)

Report is more than 6 hours old.

Closest report is Arak Airport, 48.2 nm (89.2 km) WSW. Retrieved 2022/06/28 10:00 UTC (14 hours ago):

OIHR 281000Z 30010KT 7000 NSC 34/M00 Q1012

Closest aviation forecast (TAF) to Qom International Airport (under contstruction)

Forecast is more than 12 hours old.

Closest forecast is Arak Airport, 48.2 nm (89.2 km) WSW. Retrieved 2009/12/20 18:00 UTC (13 years ago):

TAF OIHH OIHR 201800Z 2021/2112 27004MPS CAVOK